Time;durP1;ratioP1;P1;durP2;ratioP2;P2;SDS_P1;SDS_P2;PMS_P1;PMS_P2;Temp;Humidity;BMP_temperature;BMP_pressure;BME280_temperature;BME280_humidity;BME280_pressure;Samples;Min_cycle;Max_cycle;Signal;HPM_P1;HPM_P2
2024/01/06 00:00:18;;;;;;;17.25;8.77;;;4.40;1.00;;;;;;5144209;28;20026;-38
2024/01/06 00:02:51;;;;;;;14.35;9.10;;;4.40;1.00;;;;;;5166414;28;20353;-40
2024/01/06 00:05:28;;;;;;;16.27;9.57;;;4.40;1.00;;;;;;5157069;28;20038;-37
2024/01/06 00:07:59;;;;;;;15.73;9.40;;;4.40;1.00;;;;;;5148533;28;20042;-37
2024/01/06 00:10:30;;;;;;;16.20;8.90;;;4.30;1.00;;;;;;5163710;28;20225;-37
2024/01/06 00:13:01;;;;;;;13.45;8.57;;;4.20;1.00;;;;;;5165873;28;20384;-38
2024/01/06 00:15:33;;;;;;;14.02;9.13;;;4.20;99.90;;;;;;5162203;28;20040;-37
2024/01/06 00:18:06;;;;;;;16.65;7.97;;;4.10;99.90;;;;;;5132195;28;20034;-38
2024/01/06 00:20:38;;;;;;;13.65;7.80;;;4.20;99.90;;;;;;5171138;28;20336;-38
2024/01/06 00:23:12;;;;;;;13.88;7.63;;;4.20;99.90;;;;;;5130194;28;20038;-38
2024/01/06 00:25:47;;;;;;;13.93;8.57;;;4.20;99.90;;;;;;5165624;28;20284;-37
2024/01/06 00:28:19;;;;;;;16.70;8.75;;;4.20;1.00;;;;;;5165104;28;20036;-38
2024/01/06 00:30:55;;;;;;;13.85;8.50;;;4.20;1.00;;;;;;5163073;28;20038;-36
2024/01/06 00:33:34;;;;;;;12.43;8.07;;;4.30;1.00;;;;;;5166482;28;20173;-36
2024/01/06 00:36:07;;;;;;;14.45;8.70;;;4.40;1.00;;;;;;5146139;28;20039;-42
2024/01/06 00:38:38;;;;;;;16.48;9.00;;;4.50;1.00;;;;;;5165906;28;20231;-42
2024/01/06 00:41:10;;;;;;;19.25;8.65;;;4.60;1.00;;;;;;5166427;28;20225;-41
2024/01/06 00:43:46;;;;;;;17.08;9.82;;;4.70;1.00;;;;;;5166003;28;20034;-42
2024/01/06 00:46:18;;;;;;;19.45;10.68;;;4.80;1.00;;;;;;5161367;28;20031;-43
2024/01/06 00:48:52;;;;;;;15.15;10.40;;;4.80;1.00;;;;;;5166757;28;20064;-43
2024/01/06 00:51:25;;;;;;;17.30;9.85;;;4.70;1.00;;;;;;5150052;28;20377;-43
2024/01/06 00:54:02;;;;;;;15.47;9.10;;;4.70;1.00;;;;;;5162116;28;20046;-44
2024/01/06 00:56:38;;;;;;;19.13;9.98;;;4.70;1.00;;;;;;5168659;28;20026;-44
2024/01/06 00:59:12;;;;;;;16.23;9.15;;;4.70;1.00;;;;;;5150775;28;20045;-44
2024/01/06 01:01:43;;;;;;;;;;;4.80;1.00;;;;;;5159872;28;20033;-45
2024/01/06 01:04:14;;;;;;;31.20;14.52;;;4.70;1.00;;;;;;5147826;28;20255;-46
2024/01/06 01:06:52;;;;;;;25.63;14.40;;;4.70;1.00;;;;;;5143062;28;20311;-46
2024/01/06 01:09:23;;;;;;;25.15;11.93;;;4.70;1.00;;;;;;5170800;28;20064;-45
2024/01/06 01:11:59;;;;;;;21.40;11.93;;;4.70;1.00;;;;;;5168347;28;20038;-46
2024/01/06 01:14:30;;;;;;;17.70;9.55;;;4.80;1.00;;;;;;5170189;28;20770;-46
2024/01/06 01:17:02;;;;;;;18.45;9.57;;;4.90;1.00;;;;;;5146060;28;20042;-45
2024/01/06 01:19:33;;;;;;;20.80;11.57;;;5.00;1.00;;;;;;5170854;28;20030;-46
2024/01/06 01:22:05;;;;;;;18.98;11.32;;;5.00;1.00;;;;;;5151032;28;20042;-46
2024/01/06 01:24:37;;;;;;;28.90;14.07;;;4.90;1.00;;;;;;5149180;28;20048;-48
2024/01/06 01:27:10;;;;;;;27.13;13.73;;;5.00;1.00;;;;;;5169356;28;20034;-49
2024/01/06 01:29:41;;;;;;;25.67;13.53;;;5.00;1.00;;;;;;5152747;28;20226;-47
2024/01/06 01:32:14;;;;;;;28.02;13.35;;;5.10;1.00;;;;;;5147255;28;20621;-47
2024/01/06 01:34:45;;;;;;;27.45;13.50;;;5.10;1.00;;;;;;5152727;28;20046;-49
2024/01/06 01:37:17;;;;;;;29.60;12.85;;;5.00;1.00;;;;;;5158640;28;20208;-47
2024/01/06 01:39:50;;;;;;;19.45;12.25;;;5.00;1.00;;;;;;5139971;28;20344;-46
2024/01/06 01:42:21;;;;;;;22.07;12.60;;;5.00;1.00;;;;;;5168610;28;20349;-46
2024/01/06 01:44:52;;;;;;;24.15;14.88;;;5.00;1.00;;;;;;5167973;28;20137;-48
2024/01/06 01:47:24;;;;;;;21.50;12.80;;;5.00;1.00;;;;;;5149178;28;20038;-48
2024/01/06 01:50:01;;;;;;;27.35;13.13;;;5.00;1.00;;;;;;5169698;28;20046;-48
2024/01/06 01:52:35;;;;;;;40.83;19.17;;;5.00;1.00;;;;;;5167546;28;20030;-48
2024/01/06 01:55:14;;;;;;;36.20;21.58;;;4.90;1.00;;;;;;5167940;28;20042;-50
2024/01/06 01:57:46;;;;;;;31.73;17.35;;;4.80;1.00;;;;;;5168867;28;20030;-50
2024/01/06 02:00:20;;;;;;;27.02;13.80;;;4.80;1.00;;;;;;5163971;28;20220;-48
2024/01/06 02:02:52;;;;;;;;;;;4.70;1.00;;;;;;5168178;28;20125;-50
2024/01/06 02:05:23;;;;;;;24.90;13.00;;;4.70;1.00;;;;;;5168207;28;19916;-49
2024/01/06 02:07:57;;;;;;;25.65;13.85;;;4.60;1.00;;;;;;5169819;28;20030;-50
2024/01/06 02:10:31;;;;;;;23.02;13.05;;;4.60;1.00;;;;;;5169044;28;20044;-51
2024/01/06 02:13:12;;;;;;;22.90;13.50;;;4.60;1.00;;;;;;5151120;28;20345;-51
2024/01/06 02:15:43;;;;;;;23.10;13.93;;;4.70;1.00;;;;;;5165239;28;20030;-48
2024/01/06 02:18:14;;;;;;;24.83;12.68;;;4.70;1.00;;;;;;5169589;28;20206;-50
2024/01/06 02:20:48;;;;;;;24.55;13.48;;;4.60;1.00;;;;;;5165634;28;20045;-50
2024/01/06 02:23:19;;;;;;;27.33;15.37;;;4.60;1.00;;;;;;5166785;28;20038;-50
2024/01/06 02:25:53;;;;;;;28.85;13.10;;;4.60;1.00;;;;;;5161595;28;20251;-48
2024/01/06 02:28:32;;;;;;;23.98;12.57;;;4.60;1.00;;;;;;5151577;28;20030;-51
2024/01/06 02:31:05;;;;;;;24.40;12.82;;;4.70;1.00;;;;;;5165301;28;20026;-51
2024/01/06 02:33:42;;;;;;;21.90;13.10;;;4.80;1.00;;;;;;5168217;28;20048;-53
2024/01/06 02:36:17;;;;;;;22.10;11.90;;;4.80;1.00;;;;;;5167858;28;20034;-50
2024/01/06 02:38:49;;;;;;;22.85;12.38;;;4.90;1.00;;;;;;5148109;28;20022;-50
2024/01/06 02:41:20;;;;;;;19.40;11.02;;;4.90;1.00;;;;;;5158228;28;20040;-50
2024/01/06 02:43:54;;;;;;;22.10;12.32;;;5.00;1.00;;;;;;5137695;28;20044;-50
2024/01/06 02:46:25;;;;;;;20.67;11.95;;;5.20;1.00;;;;;;5165037;28;20023;-50
2024/01/06 02:48:56;;;;;;;19.75;12.00;;;5.20;1.00;;;;;;5168866;28;20038;-50
2024/01/06 02:51:27;;;;;;;19.42;11.52;;;5.30;1.00;;;;;;5168241;28;20356;-50
2024/01/06 02:53:59;;;;;;;25.60;12.68;;;5.20;1.00;;;;;;5196024;28;20253;-53
2024/01/06 02:56:30;;;;;;;21.80;12.43;;;5.00;1.00;;;;;;5186756;28;20295;-53
2024/01/06 02:59:03;;;;;;;23.02;12.30;;;4.70;1.00;;;;;;5186255;28;20364;-50
2024/01/06 03:01:53;;;;;;;23.77;11.23;;;4.60;1.00;;;;;;5183527;28;20052;-51
2024/01/06 03:04:25;;;;;;;25.13;12.73;;;4.60;1.00;;;;;;5188195;28;20119;-51
2024/01/06 03:07:01;;;;;;;25.75;13.93;;;4.50;1.00;;;;;;5187940;28;20085;-51
2024/01/06 03:09:34;;;;;;;25.73;13.73;;;4.60;1.00;;;;;;5187996;28;20034;-51
2024/01/06 03:12:07;;;;;;;21.88;12.65;;;4.50;1.00;;;;;;5188055;28;20483;-51
2024/01/06 03:14:43;;;;;;;34.15;16.40;;;4.50;1.00;;;;;;5186061;28;20026;-50
2024/01/06 03:17:17;;;;;;;25.27;14.57;;;4.50;1.00;;;;;;5183191;28;20029;-51
2024/01/06 03:19:49;;;;;;;22.90;12.63;;;4.50;1.00;;;;;;5166137;28;20364;-52
2024/01/06 03:22:20;;;;;;;27.08;13.23;;;4.50;1.00;;;;;;5170352;28;20045;-52
2024/01/06 03:24:53;;;;;;;25.60;12.18;;;4.50;1.00;;;;;;5166812;28;20278;-52
2024/01/06 03:27:25;;;;;;;22.20;12.60;;;4.40;1.00;;;;;;5187866;28;20022;-53
2024/01/06 03:29:59;;;;;;;20.92;12.60;;;4.50;1.00;;;;;;5187784;28;20034;-53
2024/01/06 03:32:33;;;;;;;22.38;14.00;;;4.50;1.00;;;;;;5183928;28;20030;-52
2024/01/06 03:35:06;;;;;;;22.92;13.55;;;4.50;1.00;;;;;;5186797;28;20038;-51
2024/01/06 03:37:40;;;;;;;23.00;13.93;;;4.50;1.00;;;;;;5186724;28;20022;-52
2024/01/06 03:40:12;;;;;;;23.48;13.98;;;4.50;1.00;;;;;;5186836;28;20056;-51
2024/01/06 03:42:43;;;;;;;30.40;14.90;;;4.40;1.00;;;;;;5186454;28;20026;-52
2024/01/06 03:45:15;;;;;;;30.58;14.23;;;4.40;1.00;;;;;;5166816;28;20026;-53
2024/01/06 03:47:46;;;;;;;26.85;14.32;;;4.40;1.00;;;;;;5188049;28;20033;-52
2024/01/06 03:50:19;;;;;;;26.35;13.95;;;4.50;1.00;;;;;;5186429;28;20041;-53
2024/01/06 03:53:10;;;;;;;24.58;13.20;;;4.50;1.00;;;;;;5181386;28;20028;-53
2024/01/06 03:55:46;;;;;;;25.35;13.60;;;4.60;1.00;;;;;;5178611;28;20046;-52
2024/01/06 03:58:20;;;;;;;30.73;15.15;;;4.60;1.00;;;;;;5186012;28;20040;-53
2024/01/06 04:00:51;;;;;;;27.63;14.20;;;4.70;1.00;;;;;;5184052;28;20230;-51
2024/01/06 04:03:22;;;;;;;26.40;13.32;;;4.70;1.00;;;;;;5189683;28;20033;-51
2024/01/06 04:05:53;;;;;;;27.52;13.95;;;4.70;1.00;;;;;;5188545;28;20030;-55
2024/01/06 04:08:29;;;;;;;31.95;15.55;;;4.70;1.00;;;;;;5190274;28;20038;-49
2024/01/06 04:11:03;;;;;;;25.85;15.10;;;4.70;1.00;;;;;;5179052;28;20211;-52
2024/01/06 04:13:34;;;;;;;26.65;15.43;;;4.70;1.00;;;;;;5181183;28;20037;-51
2024/01/06 04:16:06;;;;;;;29.08;15.13;;;4.70;1.00;;;;;;5186266;28;20037;-50
2024/01/06 04:18:37;;;;;;;24.98;14.95;;;4.70;1.00;;;;;;5171529;28;20038;-50
2024/01/06 04:21:11;;;;;;;32.85;16.20;;;4.70;1.00;;;;;;5191116;28;20313;-52
2024/01/06 04:23:43;;;;;;;31.38;16.05;;;4.70;1.00;;;;;;5179638;28;20026;-50
2024/01/06 04:26:16;;;;;;;31.42;16.15;;;4.80;1.00;;;;;;5171465;28;20037;-50
2024/01/06 04:28:53;;;;;;;31.92;17.05;;;4.80;1.00;;;;;;5188806;28;20021;-49
2024/01/06 04:31:24;;;;;;;35.92;17.17;;;4.90;1.00;;;;;;5153009;28;20046;-50
2024/01/06 04:34:00;;;;;;;36.67;17.73;;;4.90;1.00;;;;;;5188638;28;20036;-50
2024/01/06 04:36:32;;;;;;;26.30;15.73;;;4.90;1.00;;;;;;5187067;28;20046;-50
2024/01/06 04:39:03;;;;;;;31.27;16.90;;;4.90;1.00;;;;;;5187554;28;20459;-48
2024/01/06 04:41:34;;;;;;;37.47;16.23;;;5.00;1.00;;;;;;5188752;28;20033;-48
2024/01/06 04:44:08;;;;;;;35.53;17.45;;;5.00;1.00;;;;;;5187532;28;20390;-48
2024/01/06 04:46:39;;;;;;;35.63;18.13;;;5.00;1.00;;;;;;5168458;28;20026;-50
2024/01/06 04:49:13;;;;;;;33.05;17.23;;;5.00;1.00;;;;;;5188905;28;20040;-50
2024/01/06 04:51:44;;;;;;;31.45;17.63;;;4.90;1.00;;;;;;5195152;28;20045;-49
2024/01/06 04:54:15;;;;;;;33.75;17.63;;;4.80;1.00;;;;;;5205962;28;20190;-51
2024/01/06 04:56:47;;;;;;;36.72;19.83;;;4.80;1.00;;;;;;5190231;28;20232;-50
2024/01/06 04:59:21;;;;;;;36.25;19.02;;;4.80;1.00;;;;;;5187098;28;20040;-50
2024/01/06 05:01:54;;;;;;;29.88;17.38;;;4.80;1.00;;;;;;5176523;28;20323;-49
2024/01/06 05:04:25;;;;;;;36.13;18.20;;;4.70;1.00;;;;;;5167849;28;20306;-54
2024/01/06 05:06:57;;;;;;;31.70;18.42;;;4.60;1.00;;;;;;5167165;28;20039;-49
2024/01/06 05:09:28;;;;;;;30.85;17.35;;;4.60;1.00;;;;;;5167349;28;20046;-48
2024/01/06 05:12:03;;;;;;;35.55;18.40;;;4.60;1.00;;;;;;5167311;28;20056;-49
2024/01/06 05:14:36;;;;;;;33.08;17.88;;;4.60;1.00;;;;;;5150500;28;20323;-49
2024/01/06 05:17:09;;;;;;;31.58;17.15;;;4.60;1.00;;;;;;5163212;28;20026;-49
2024/01/06 05:19:42;;;;;;;32.78;18.02;;;4.60;1.00;;;;;;5167576;28;20030;-49
2024/01/06 05:22:16;;;;;;;30.63;19.23;;;4.60;1.00;;;;;;5189390;28;20037;-50
2024/01/06 05:24:47;;;;;;;32.03;17.33;;;4.50;1.00;;;;;;5206272;28;20219;-50
2024/01/06 05:27:23;;;;;;;28.67;17.55;;;4.50;1.00;;;;;;5188125;28;20036;-50
2024/01/06 05:29:57;;;;;;;28.55;14.90;;;4.50;1.00;;;;;;5169653;28;20060;-50
2024/01/06 05:32:30;;;;;;;33.72;16.63;;;4.60;1.00;;;;;;5183558;28;20030;-49
2024/01/06 05:35:04;;;;;;;30.80;17.02;;;4.50;1.00;;;;;;5168775;28;20057;-50
2024/01/06 05:37:35;;;;;;;39.50;17.75;;;4.50;1.00;;;;;;5190949;28;20032;-50
2024/01/06 05:40:09;;;;;;;33.70;16.80;;;4.50;1.00;;;;;;5191141;28;20343;-48
2024/01/06 05:42:45;;;;;;;28.92;15.70;;;4.60;1.00;;;;;;5191747;28;20231;-49
2024/01/06 05:45:18;;;;;;;30.50;16.65;;;4.60;1.00;;;;;;5186531;28;20022;-49
2024/01/06 05:47:50;;;;;;;26.00;15.43;;;4.60;1.00;;;;;;5157786;28;20353;-48
2024/01/06 05:50:23;;;;;;;33.03;17.38;;;4.80;1.00;;;;;;5189692;28;20026;-48
2024/01/06 05:52:57;;;;;;;30.02;14.80;;;4.80;1.00;;;;;;5207258;28;20041;-49
2024/01/06 05:55:30;;;;;;;30.83;16.17;;;4.80;1.00;;;;;;5203047;28;20036;-48
2024/01/06 05:58:04;;;;;;;28.98;16.90;;;4.80;1.00;;;;;;5190563;28;20759;-48
2024/01/06 06:00:37;;;;;;;28.07;16.10;;;4.80;1.00;;;;;;5185623;28;20038;-48
2024/01/06 06:03:08;;;;;;;28.97;15.43;;;4.80;1.00;;;;;;5189588;28;20259;-53
2024/01/06 06:05:42;;;;;;;26.98;14.90;;;4.80;1.00;;;;;;5196075;28;20041;-49
2024/01/06 06:08:14;;;;;;;24.88;15.00;;;4.80;1.00;;;;;;5196677;28;20038;-48
2024/01/06 06:11:10;;;;;;;28.88;15.65;;;4.90;1.00;;;;;;5189924;28;20044;-48
2024/01/06 06:13:41;;;;;;;29.90;15.63;;;5.00;1.00;;;;;;5169202;28;20064;-49
2024/01/06 06:16:15;;;;;;;26.17;14.60;;;5.00;1.00;;;;;;5176089;28;20032;-49
2024/01/06 06:18:46;;;;;;;29.17;15.13;;;5.00;1.00;;;;;;5189584;28;20030;-48
2024/01/06 06:21:17;;;;;;;27.95;15.38;;;5.00;1.00;;;;;;5194573;28;20055;-50
2024/01/06 06:23:51;;;;;;;29.88;15.18;;;4.90;1.00;;;;;;5194028;28;20349;-48
2024/01/06 06:26:24;;;;;;;36.80;16.25;;;4.80;1.00;;;;;;5197214;28;20026;-52
2024/01/06 06:28:55;;;;;;;31.48;17.15;;;4.70;1.00;;;;;;5191202;28;20357;-51
2024/01/06 06:31:29;;;;;;;27.92;15.65;;;4.70;1.00;;;;;;5169612;28;20046;-50
2024/01/06 06:34:01;;;;;;;31.98;16.38;;;4.60;1.00;;;;;;5173525;28;20056;-50
2024/01/06 06:36:32;;;;;;;26.83;15.25;;;4.50;1.00;;;;;;5190266;28;20049;-50
2024/01/06 06:39:04;;;;;;;29.10;14.93;;;4.50;1.00;;;;;;5190333;28;20034;-51
2024/01/06 06:41:41;;;;;;;28.58;15.45;;;4.40;1.00;;;;;;5190864;28;20226;-51
2024/01/06 06:44:13;;;;;;;32.15;16.60;;;4.40;1.00;;;;;;5172529;28;20034;-49
2024/01/06 06:46:47;;;;;;;28.80;15.23;;;4.40;1.00;;;;;;5169440;28;20042;-50
2024/01/06 06:49:21;;;;;;;26.90;13.98;;;4.50;1.00;;;;;;5188771;28;20033;-51
2024/01/06 06:51:52;;;;;;;22.83;13.18;;;4.50;1.00;;;;;;5179604;28;20045;-50
2024/01/06 06:54:26;;;;;;;26.75;15.43;;;4.60;1.00;;;;;;5191196;28;20056;-51
2024/01/06 06:56:57;;;;;;;29.63;15.98;;;4.60;1.00;;;;;;5190297;28;20041;-50
2024/01/06 06:59:29;;;;;;;24.02;13.77;;;4.60;1.00;;;;;;5189255;28;20057;-51
2024/01/06 07:02:00;;;;;;;29.20;14.88;;;4.70;1.00;;;;;;5168968;28;20034;-53
2024/01/06 07:04:34;;;;;;;26.38;14.35;;;4.70;1.00;;;;;;5189614;28;20336;-51
2024/01/06 07:07:07;;;;;;;29.27;14.93;;;4.60;1.00;;;;;;5190474;28;20026;-50
2024/01/06 07:09:41;;;;;;;31.10;15.50;;;4.70;1.00;;;;;;5189759;28;20575;-50
2024/01/06 07:12:16;;;;;;;24.50;13.73;;;4.70;1.00;;;;;;5188826;28;20042;-50
2024/01/06 07:14:49;;;;;;;27.48;14.63;;;4.70;1.00;;;;;;5189353;28;20053;-50
2024/01/06 07:17:21;;;;;;;23.50;13.93;;;4.60;1.00;;;;;;5185386;28;20042;-50
2024/01/06 07:19:55;;;;;;;27.75;15.20;;;4.70;1.00;;;;;;5189423;28;20044;-51
2024/01/06 07:22:26;;;;;;;28.35;15.10;;;4.80;1.00;;;;;;5201650;28;20443;-53
2024/01/06 07:24:57;;;;;;;30.20;14.40;;;4.80;1.00;;;;;;5200462;28;20353;-52
2024/01/06 07:27:28;;;;;;;29.63;15.15;;;4.80;1.00;;;;;;5188751;28;20022;-50
2024/01/06 07:30:00;;;;;;;23.60;13.57;;;4.80;1.00;;;;;;5189166;28;20041;-50
2024/01/06 07:32:31;;;;;;;23.33;13.98;;;4.70;1.00;;;;;;5185798;28;20040;-50
2024/01/06 07:35:02;;;;;;;29.40;13.68;;;4.80;1.00;;;;;;5188173;28;20037;-50
2024/01/06 07:37:36;;;;;;;25.42;13.75;;;4.80;1.00;;;;;;5187323;28;20042;-50
2024/01/06 07:40:13;;;;;;;28.35;14.00;;;4.90;1.00;;;;;;5188569;28;20042;-50
2024/01/06 07:42:46;;;;;;;30.83;14.52;;;4.90;1.00;;;;;;5171704;28;20026;-50
2024/01/06 07:45:18;;;;;;;25.95;13.90;;;5.00;1.00;;;;;;5184873;28;20036;-50
2024/01/06 07:47:49;;;;;;;23.98;13.45;;;5.10;1.00;;;;;;5188626;28;20227;-50
2024/01/06 07:50:20;;;;;;;25.63;14.60;;;5.10;1.00;;;;;;5187336;28;20385;-50
2024/01/06 07:52:58;;;;;;;27.27;15.20;;;5.10;1.00;;;;;;5204683;28;20048;-50
2024/01/06 07:55:29;;;;;;;26.88;15.13;;;5.10;1.00;;;;;;5185091;28;20052;-51
2024/01/06 07:58:03;;;;;;;32.38;15.57;;;5.10;1.00;;;;;;5169750;28;20018;-51
2024/01/06 08:00:34;;;;;;;24.55;13.55;;;5.00;1.00;;;;;;5181708;28;20264;-56
2024/01/06 08:03:08;;;;;;;23.58;11.90;;;4.90;1.00;;;;;;5185544;28;20037;-50
2024/01/06 08:05:43;;;;;;;21.53;12.57;;;4.90;1.00;;;;;;5185136;28;20038;-51
2024/01/06 08:08:16;;;;;;;22.10;12.35;;;4.80;1.00;;;;;;5168004;28;20263;-51
2024/01/06 08:10:48;;;;;;;21.73;11.75;;;4.80;1.00;;;;;;5187971;28;20277;-52
2024/01/06 08:13:19;;;;;;;21.10;12.07;;;4.70;1.00;;;;;;5187123;28;20241;-52
2024/01/06 08:15:51;;;;;;;24.45;12.05;;;4.60;1.00;;;;;;5183583;28;20314;-52
2024/01/06 08:18:27;;;;;;;21.48;12.43;;;4.50;1.00;;;;;;5169813;28;20206;-51
2024/01/06 08:21:01;;;;;;;20.92;11.60;;;4.50;1.00;;;;;;5184212;28;20030;-51
2024/01/06 08:23:32;;;;;;;21.92;11.30;;;4.50;1.00;;;;;;5169326;28;20038;-51
2024/01/06 08:26:07;;;;;;;20.90;12.07;;;4.50;1.00;;;;;;5186311;28;20030;-52
2024/01/06 08:28:42;;;;;;;18.67;11.00;;;4.50;1.00;;;;;;5173711;28;20045;-51
2024/01/06 08:31:15;;;;;;;20.95;10.15;;;4.50;1.00;;;;;;5184366;28;20030;-51
2024/01/06 08:33:51;;;;;;;17.50;9.48;;;4.40;1.00;;;;;;5174225;28;20365;-51
2024/01/06 08:36:25;;;;;;;16.95;10.05;;;4.40;1.00;;;;;;5182426;28;20037;-51
2024/01/06 08:38:58;;;;;;;14.10;9.75;;;4.30;1.00;;;;;;5168478;28;20034;-51
2024/01/06 08:41:29;;;;;;;14.67;9.37;;;4.30;1.00;;;;;;5168250;28;20270;-50
2024/01/06 08:44:01;;;;;;;16.80;9.40;;;4.30;1.00;;;;;;5180982;28;20037;-50
2024/01/06 08:46:32;;;;;;;13.63;8.65;;;4.30;1.00;;;;;;5143990;28;20036;-52
2024/01/06 08:49:05;;;;;;;15.30;8.98;;;4.30;1.00;;;;;;5183078;28;20081;-52
2024/01/06 08:51:37;;;;;;;11.90;7.47;;;4.20;1.00;;;;;;5184217;28;20029;-50
2024/01/06 08:54:11;;;;;;;13.32;7.38;;;4.20;1.00;;;;;;5184316;28;20044;-50
2024/01/06 08:56:43;;;;;;;10.93;6.68;;;4.20;1.00;;;;;;5178447;28;20245;-50
2024/01/06 08:59:16;;;;;;;10.95;6.65;;;4.10;1.00;;;;;;5184893;28;20038;-54
2024/01/06 09:01:50;;;;;;;11.47;6.77;;;4.10;1.00;;;;;;5182992;28;20034;-50
2024/01/06 09:04:21;;;;;;;11.73;6.60;;;4.20;1.00;;;;;;5185100;28;20615;-50
2024/01/06 09:06:52;;;;;;;13.05;6.45;;;4.20;1.00;;;;;;5180888;28;20044;-50
2024/01/06 09:09:24;;;;;;;9.05;5.97;;;4.20;1.00;;;;;;5187247;28;20042;-50
2024/01/06 09:11:56;;;;;;;7.50;5.65;;;4.20;1.00;;;;;;5190853;28;20048;-50
2024/01/06 09:14:32;;;;;;;8.10;5.63;;;4.20;1.00;;;;;;5191041;28;20038;-51
2024/01/06 09:17:04;;;;;;;7.68;4.90;;;4.20;1.00;;;;;;5187995;28;20049;-50
2024/01/06 09:19:38;;;;;;;8.50;5.43;;;4.20;1.00;;;;;;5183432;28;20060;-50
2024/01/06 09:22:11;;;;;;;7.80;5.07;;;4.20;1.00;;;;;;5183381;28;20293;-50
2024/01/06 09:24:42;;;;;;;10.32;5.53;;;4.20;1.00;;;;;;5188362;28;20280;-51
2024/01/06 09:27:14;;;;;;;7.13;4.53;;;4.20;1.00;;;;;;5194664;28;20034;-51
2024/01/06 09:29:50;;;;;;;8.38;5.15;;;4.30;1.00;;;;;;5177668;28;20055;-50
2024/01/06 09:32:22;;;;;;;6.90;4.65;;;4.30;1.00;;;;;;5156737;28;20288;-51
2024/01/06 09:34:54;;;;;;;9.20;4.63;;;4.30;1.00;;;;;;5186053;28;20049;-51
2024/01/06 09:37:27;;;;;;;6.15;5.03;;;4.30;1.00;;;;;;5178354;28;20034;-49
2024/01/06 09:39:59;;;;;;;8.80;4.47;;;4.30;1.00;;;;;;5183194;28;20032;-51
2024/01/06 09:42:30;;;;;;;7.70;4.60;;;4.30;1.00;;;;;;5186208;28;20030;-51
2024/01/06 09:45:07;;;;;;;6.60;4.35;;;4.30;1.00;;;;;;5179229;28;20034;-51
2024/01/06 09:47:47;;;;;;;6.85;4.85;;;4.30;1.00;;;;;;5166290;28;20034;-52
2024/01/06 09:50:19;;;;;;;7.22;4.28;;;4.30;1.00;;;;;;5187402;28;20037;-52
2024/01/06 09:52:55;;;;;;;10.48;6.80;;;4.40;1.00;;;;;;5188444;28;20045;-51
2024/01/06 09:55:29;;;;;;;9.23;4.88;;;4.30;1.00;;;;;;5185235;28;20030;-51
2024/01/06 09:58:02;;;;;;;12.23;5.00;;;4.40;1.00;;;;;;5186540;28;20061;-54
2024/01/06 10:00:34;;;;;;;6.80;4.63;;;4.40;1.00;;;;;;5175469;28;20034;-51
2024/01/06 10:03:07;;;;;;;9.25;6.07;;;4.40;1.00;;;;;;5187876;28;20032;-51
2024/01/06 10:05:41;;;;;;;7.35;4.82;;;4.40;1.00;;;;;;5171085;28;20285;-51
2024/01/06 10:08:12;;;;;;;7.83;5.47;;;4.50;1.00;;;;;;5184271;28;20199;-52
2024/01/06 10:10:45;;;;;;;7.72;5.10;;;4.50;1.00;;;;;;5175679;28;20038;-51
2024/01/06 10:13:18;;;;;;;8.10;5.00;;;4.50;1.00;;;;;;5185242;28;20034;-51
2024/01/06 10:15:54;;;;;;;10.88;5.47;;;4.50;1.00;;;;;;5182304;28;20038;-52
2024/01/06 10:18:28;;;;;;;9.15;6.00;;;4.50;1.00;;;;;;5184449;28;20033;-52
2024/01/06 10:21:00;;;;;;;11.13;6.10;;;4.50;1.00;;;;;;5184758;28;20053;-52
2024/01/06 10:23:34;;;;;;;10.63;5.80;;;4.50;1.00;;;;;;5170341;28;20046;-51
2024/01/06 10:26:09;;;;;;;10.15;6.03;;;4.50;1.00;;;;;;5188595;28;20042;-52
2024/01/06 10:28:43;;;;;;;7.32;5.30;;;4.40;1.00;;;;;;5180174;28;20038;-52
2024/01/06 10:31:16;;;;;;;8.80;5.73;;;4.40;1.00;;;;;;5179941;28;20226;-52
2024/01/06 10:33:48;;;;;;;9.50;5.88;;;4.40;1.00;;;;;;5187914;28;20325;-51
2024/01/06 10:36:20;;;;;;;9.82;7.20;;;4.40;1.00;;;;;;5189830;28;20042;-51
2024/01/06 10:38:52;;;;;;;12.48;6.78;;;4.40;1.00;;;;;;5186336;28;20038;-51
2024/01/06 10:41:25;;;;;;;16.60;8.00;;;4.40;1.00;;;;;;5181349;28;20316;-51
2024/01/06 10:44:01;;;;;;;11.77;7.13;;;4.40;1.00;;;;;;5187920;28;20056;-51
2024/01/06 10:46:34;;;;;;;7.97;5.82;;;4.40;1.00;;;;;;5184252;28;20042;-52
2024/01/06 10:49:12;;;;;;;8.23;4.90;;;4.40;1.00;;;;;;5187836;28;20033;-53
2024/01/06 10:52:04;;;;;;;8.52;5.78;;;4.40;1.00;;;;;;5181142;28;20041;-52
2024/01/06 10:54:41;;;;;;;8.68;5.70;;;4.40;1.00;;;;;;5178875;28;20038;-53
2024/01/06 10:57:13;;;;;;;16.83;8.32;;;4.50;1.00;;;;;;5164520;28;20053;-52
2024/01/06 10:59:48;;;;;;;8.82;6.05;;;4.50;1.00;;;;;;5169551;28;20045;-52
2024/01/06 11:02:20;;;;;;;9.68;5.70;;;4.50;1.00;;;;;;5182259;28;20245;-53
2024/01/06 11:04:53;;;;;;;16.25;9.57;;;4.40;1.00;;;;;;5185466;28;20232;-53
2024/01/06 11:07:25;;;;;;;8.00;4.55;;;4.40;1.00;;;;;;5166297;28;20199;-52
2024/01/06 11:10:00;;;;;;;7.50;5.30;;;4.40;1.00;;;;;;5167688;28;20362;-53
2024/01/06 11:12:31;;;;;;;6.95;5.38;;;4.40;1.00;;;;;;5184532;28;20041;-52
2024/01/06 11:15:04;;;;;;;8.75;6.20;;;4.40;1.00;;;;;;5167231;28;20307;-53
2024/01/06 11:17:53;;;;;;;8.38;6.80;;;4.50;1.00;;;;;;5167030;28;20033;-52
2024/01/06 11:20:30;;;;;;;7.65;4.78;;;4.50;1.00;;;;;;5183262;28;20037;-52
2024/01/06 11:23:22;;;;;;;6.93;4.68;;;4.40;1.00;;;;;;5185828;28;20045;-53
2024/01/06 11:25:56;;;;;;;6.03;3.85;;;4.40;1.00;;;;;;5179169;28;20030;-52
2024/01/06 11:28:30;;;;;;;5.95;3.95;;;4.50;1.00;;;;;;5185446;28;20335;-53
2024/01/06 11:31:12;;;;;;;6.70;4.55;;;4.40;1.00;;;;;;5181267;28;20045;-52
2024/01/06 11:33:44;;;;;;;4.75;3.50;;;4.30;1.00;;;;;;5184971;28;20053;-52
2024/01/06 11:36:22;;;;;;;4.65;3.78;;;4.30;1.00;;;;;;5190950;28;20040;-52
2024/01/06 11:38:56;;;;;;;5.90;4.35;;;4.30;1.00;;;;;;5189019;28;20337;-53
2024/01/06 11:41:50;;;;;;;5.57;3.70;;;4.20;1.00;;;;;;5186023;28;20028;-52
2024/01/06 11:44:27;;;;;;;5.93;3.90;;;4.20;1.00;;;;;;5184439;28;20034;-53
2024/01/06 11:47:04;;;;;;;5.43;3.90;;;4.20;1.00;;;;;;5184073;28;20037;-55
2024/01/06 11:49:36;;;;;;;4.82;3.45;;;4.20;1.00;;;;;;5173785;28;20067;-53
2024/01/06 11:52:07;;;;;;;4.72;3.40;;;4.20;1.00;;;;;;5165054;28;20040;-53
2024/01/06 11:54:43;;;;;;;6.13;3.63;;;4.20;1.00;;;;;;5177444;28;20030;-53
2024/01/06 11:57:21;;;;;;;4.75;3.70;;;4.20;1.00;;;;;;5184546;28;20042;-53
2024/01/06 11:59:55;;;;;;;4.97;3.50;;;4.30;1.00;;;;;;5167476;28;20372;-53
2024/01/06 12:02:29;;;;;;;4.80;3.78;;;4.20;1.00;;;;;;5175422;28;20040;-52
2024/01/06 12:05:00;;;;;;;3.88;3.28;;;4.20;1.00;;;;;;5169131;28;20536;-53
2024/01/06 12:07:34;;;;;;;4.57;3.40;;;4.20;1.00;;;;;;5184820;28;20226;-53
2024/01/06 12:10:07;;;;;;;4.57;3.65;;;4.20;1.00;;;;;;5184934;28;20076;-52
2024/01/06 12:12:38;;;;;;;5.07;4.22;;;4.20;1.00;;;;;;5186606;28;20044;-52
2024/01/06 12:15:13;;;;;;;3.33;3.03;;;4.20;1.00;;;;;;5182904;28;20048;-52
2024/01/06 12:17:46;;;;;;;6.63;3.38;;;4.20;1.00;;;;;;5185938;28;20025;-52
2024/01/06 12:20:24;;;;;;;8.70;4.15;;;4.20;1.00;;;;;;5185275;28;20030;-51
2024/01/06 12:22:56;;;;;;;5.05;3.63;;;4.20;1.00;;;;;;5196167;28;20326;-51
2024/01/06 12:25:33;;;;;;;6.32;4.22;;;4.20;1.00;;;;;;5168135;28;20033;-50
2024/01/06 12:28:05;;;;;;;5.43;3.45;;;4.10;1.00;;;;;;5178310;28;20036;-50
2024/01/06 12:30:38;;;;;;;6.28;3.63;;;4.10;1.00;;;;;;5163767;28;20418;-50
2024/01/06 12:33:10;;;;;;;4.22;3.28;;;4.10;1.00;;;;;;5165586;28;20046;-50
2024/01/06 12:35:44;;;;;;;5.05;2.92;;;4.10;1.00;;;;;;5187149;28;20253;-50
2024/01/06 12:38:21;;;;;;;3.40;2.50;;;4.10;1.00;;;;;;5185514;28;20030;-50
2024/01/06 12:40:55;;;;;;;4.88;3.38;;;4.10;1.00;;;;;;5170379;28;20038;-50
2024/01/06 12:43:27;;;;;;;4.30;2.97;;;4.10;1.00;;;;;;5186350;28;20034;-49
2024/01/06 12:46:03;;;;;;;3.67;2.95;;;4.10;1.00;;;;;;5183201;28;20217;-53
2024/01/06 12:48:35;;;;;;;3.55;3.25;;;4.10;1.00;;;;;;5185016;28;20022;-50
2024/01/06 12:51:06;;;;;;;4.75;3.05;;;4.20;1.00;;;;;;5189038;28;20017;-50
2024/01/06 12:53:39;;;;;;;3.78;3.25;;;4.10;1.00;;;;;;5188130;28;20042;-51
2024/01/06 12:56:11;;;;;;;3.97;3.20;;;4.10;1.00;;;;;;5191541;28;20060;-51
2024/01/06 12:58:43;;;;;;;5.20;3.30;;;4.10;1.00;;;;;;5157112;28;20267;-51
2024/01/06 13:01:17;;;;;;;5.03;3.15;;;4.10;1.00;;;;;;5179856;28;20097;-49
2024/01/06 13:03:51;;;;;;;5.10;3.33;;;4.10;1.00;;;;;;5185203;28;20030;-51
2024/01/06 13:06:25;;;;;;;5.15;2.88;;;4.10;1.00;;;;;;5177446;28;20037;-51
2024/01/06 13:08:59;;;;;;;3.70;2.97;;;4.10;1.00;;;;;;5178114;28;20397;-50
2024/01/06 13:11:34;;;;;;;3.22;2.65;;;4.10;1.00;;;;;;5183920;28;20029;-50
2024/01/06 13:14:07;;;;;;;4.10;2.83;;;4.10;1.00;;;;;;5182836;28;20037;-50
2024/01/06 13:16:39;;;;;;;6.60;3.50;;;4.20;1.00;;;;;;5177572;28;20022;-50
2024/01/06 13:19:11;;;;;;;5.85;4.30;;;4.10;1.00;;;;;;5178522;28;20875;-50
2024/01/06 13:21:42;;;;;;;3.63;2.85;;;4.20;1.00;;;;;;5165990;28;20232;-50
2024/01/06 13:24:13;;;;;;;4.22;3.20;;;4.20;1.00;;;;;;5178469;28;20333;-50
2024/01/06 13:26:44;;;;;;;5.30;3.35;;;4.20;1.00;;;;;;5166289;28;20240;-50